Williamstown, MA

3:42 PM EDT on September 25, 2016 (GMT -0400)
Williams College '66 Environmental Center | | Change Station
Active Advisory: Frost Advisory, Special Statement

Elev 682 ft 42.71 °N, 73.20 °W | Updated 6 minutes ago

Clear
Clear
62.9 °F
Feels Like 62.9 °F
N
3.0
Wind Variable Wind from NNW
Gusts 7.0 mph

Today
High -- | Low -- °F
--% Chance of Precip.
Yesterday
High -- | Low -- °F
Precip. -- in
Pressure 30.17 in
Visibility 10.0 miles
Clouds Clear
Dew Point 40 °F
Humidity 43%
Rainfall 0.00 in
Snow Depth Not available.
6:43 AM 6:43 PM
Waning Crescent, 25% visible
METAR KAQW 251852Z AUTO VRB03KT 10SM CLR 16/02 A3015 RMK AO2 SLP214 T01560022
Pressure 30.17 in
Visibility 10.0 miles
Clouds Clear
Dew Point 40 °F
Humidity 43%
Rainfall 0.00 in
Snow Depth Not available.
6:43 AM 6:43 PM
Waning Crescent, 25% visible
METAR KAQW 251852Z AUTO VRB03KT 10SM CLR 16/02 A3015 RMK AO2 SLP214 T01560022

10-Day Weather Forecast

Almanac

Astronomy

Sep. 25, 2016 Rise Set
Actual Time
Civil Twilight
Nautical Twilight
Astronomical Twilight
Moon
Length of Visible Light
Length of Day
Tomorrow will be .
, % of the Moon is Illuminated

Today's Extremes

State Highs State Lows

Community

WunderPhotos

Upload Photos

1,941,708 photos uploaded!

WunderBlog® & News

Nearby

Air Quality

  Air Quality AQ Index Pollutant
Not available.

Snow Depth

Station Depth Elevation

Earthquake Activity

City Distance Mag. Time & Date
Minimum magnitude displayed is 2.5.

Coastal Water Temperatures

Place Temperature

Stations

Nearby Weather Stations

Station Location Temp. Windchill Dew Point Humidity Wind Precip. Elev Updated Type
                   

Watches & Warnings

Frost Advisory
Issued: 3:14 PM EDT Sep. 25, 2016 – National Weather Service

... Frost advisory remains in effect from 2 am to 8 am EDT
Monday...

* locations... Mohawk Valley... Saratoga region... capital region...
   Taconics... Mid Hudson valley... eastern Catskills... northwest
Connecticut... Berkshires and all of southern Vermont.

* Temperatures... in the middle 30s.

* Impacts... potential frost damage to sensitive plants and crops.

Precautionary/preparedness actions...

A frost advisory means that widespread frost is expected.
Sensitive outdoor plants may be killed if left uncovered.




Special Statement
Issued: 4:10 AM EDT Sep. 25, 2016 – National Weather Service

... Elevated fire risk across western Massachusetts today...

The combination of dry ground conditions... afternoon relative
humidity dropping into the 30s... and wind gusts into the teens at
times will increase the fire risk across the Berkshires this
afternoon.



410 am EDT sun Sep 25 2016

... Elevated fire risk across western Massachusetts today...

The combination of dry ground conditions... afternoon relative
humidity dropping into the 30s... and wind gusts into the teens at
times will increase the fire risk across the Berkshires this
afternoon.